地図

経路データ

SID SEASON NUMBER BASIN SUBBASIN NAME ISO_TIME NATURE LAT LON WMO_WIND WMO_PRES WMO_AGENCY TRACK_TYPE DIST2LAND LANDFALL IFLAG USA_AGENCY USA_ATCF_ID USA_LAT USA_LON USA_RECORD USA_STATUS USA_WIND USA_PRES USA_SSHS USA_R34_NE USA_R34_SE USA_R34_SW USA_R34_NW USA_R50_NE USA_R50_SE USA_R50_SW USA_R50_NW USA_R64_NE USA_R64_SE USA_R64_SW USA_R64_NW USA_POCI USA_ROCI USA_RMW USA_EYE TOKYO_LAT TOKYO_LON TOKYO_GRADE TOKYO_WIND TOKYO_PRES TOKYO_R50_DIR TOKYO_R50_LONG TOKYO_R50_SHORT TOKYO_R30_DIR TOKYO_R30_LONG TOKYO_R30_SHORT TOKYO_LAND CMA_LAT CMA_LON CMA_CAT CMA_WIND CMA_PRES HKO_LAT HKO_LON HKO_CAT HKO_WIND HKO_PRES NEWDELHI_LAT NEWDELHI_LON NEWDELHI_GRADE NEWDELHI_WIND NEWDELHI_PRES NEWDELHI_CI NEWDELHI_DP NEWDELHI_POCI REUNION_LAT REUNION_LON REUNION_TYPE REUNION_WIND REUNION_PRES REUNION_TNUM REUNION_CI REUNION_RMW REUNION_R34_NE REUNION_R34_SE REUNION_R34_SW REUNION_R34_NW REUNION_R50_NE REUNION_R50_SE REUNION_R50_SW REUNION_R50_NW REUNION_R64_NE REUNION_R64_SE REUNION_R64_SW REUNION_R64_NW BOM_LAT BOM_LON BOM_TYPE BOM_WIND BOM_PRES BOM_TNUM BOM_CI BOM_RMW BOM_R34_NE BOM_R34_SE BOM_R34_SW BOM_R34_NW BOM_R50_NE BOM_R50_SE BOM_R50_SW BOM_R50_NW BOM_R64_NE BOM_R64_SE BOM_R64_SW BOM_R64_NW BOM_ROCI BOM_POCI BOM_EYE BOM_POS_METHOD BOM_PRES_METHOD NADI_LAT NADI_LON NADI_CAT NADI_WIND NADI_PRES WELLINGTON_LAT WELLINGTON_LON WELLINGTON_WIND WELLINGTON_PRES DS824_LAT DS824_LON DS824_STAGE DS824_WIND DS824_PRES TD9636_LAT TD9636_LON TD9636_STAGE TD9636_WIND TD9636_PRES TD9635_LAT TD9635_LON TD9635_WIND TD9635_PRES TD9635_ROCI NEUMANN_LAT NEUMANN_LON NEUMANN_CLASS NEUMANN_WIND NEUMANN_PRES MLC_LAT MLC_LON MLC_CLASS MLC_WIND MLC_PRES USA_GUST BOM_GUST BOM_GUST_PER REUNION_GUST REUNION_GUST_PER USA_SEAHGT USA_SEARAD_NE USA_SEARAD_SE USA_SEARAD_SW USA_SEARAD_NW STORM_SPEED STORM_DIR
1984314N09088 1984 110 NI BB NOT_NAMED 1984-11-09 00:00:00 NR 8.80000 88.0000 main 696 665 O_________O___ jtwc_io IO031984 8.80000 88.0000 20 -1 8.80000 88.0000 1 20 7 287
1984314N09088 1984 110 NI BB NOT_NAMED 1984-11-09 03:00:00 NR 8.90219 87.6623 main 665 636 P_________P___ IO031984 8.89011 87.6275 22 -1 8.91427 87.6970 1 21 7 289
1984314N09088 1984 110 NI BB NOT_NAMED 1984-11-09 06:00:00 NR 9.01637 87.3475 main 625 607 O_________P___ jtwc_io IO031984 9.00000 87.3000 25 -1 9.03274 87.3951 1 22 6 293
1984314N09088 1984 110 NI BB NOT_NAMED 1984-11-09 09:00:00 NR 9.15113 87.0691 main 610 582 P_________P___ IO031984 9.14243 87.0425 25 -1 9.15983 87.0957 1 23 6 298
1984314N09088 1984 110 NI BB NOT_NAMED 1984-11-09 12:00:00 NR 9.30000 86.8000 main 582 555 O_________O___ jtwc_io IO031984 9.30000 86.8000 25 -1 9.30000 86.8000 1 25 6 299
1984314N09088 1984 110 NI BB NOT_NAMED 1984-11-09 15:00:00 NR 9.45243 86.5078 main 559 533 P_________P___ IO031984 9.44999 86.5075 27 -1 9.45487 86.5081 1 26 7 298
1984314N09088 1984 110 NI BB NOT_NAMED 1984-11-09 18:00:00 NR 9.60741 86.2075 main 533 508 O_________P___ jtwc_io IO031984 9.60000 86.2000 30 -1 9.61481 86.2150 1 27 7 298
1984314N09088 1984 110 NI BB NOT_NAMED 1984-11-09 21:00:00 NR 9.76616 85.9072 main 513 488 P_________P___ IO031984 9.76497 85.9000 30 -1 9.76735 85.9144 1 28 7 296
1984314N09088 1984 110 NI BB NOT_NAMED 1984-11-10 00:00:00 NR 9.90000 85.6000 main 488 464 O_________O___ jtwc_io IO031984 9.90000 85.6000 30 -1 9.90000 85.6000 1 30 6 289
1984314N09088 1984 110 NI BB NOT_NAMED 1984-11-10 03:00:00 NR 9.97901 85.2896 main 464 434 P_________P___ IO031984 9.95743 85.3149 30 -1 10.0006 85.2643 1 30 6 282
1984314N09088 1984 110 NI BB NOT_NAMED 1984-11-10 06:00:00 NR 10.0400 84.9574 main 434 399 O_________P___ jtwc_io IO031984 10.0000 85.0000 30 -1 10.0799 84.9149 1 30 7 282
1984314N09088 1984 110 NI BB NOT_NAMED 1984-11-10 09:00:00 NR 10.1222 84.5790 main 399 367 P_________P___ IO031984 10.1001 84.6000 30 -1 10.1443 84.5580 1 30 8 282
1984314N09088 1984 110 NI BB NOT_NAMED 1984-11-10 12:00:00 NR 10.2000 84.2000 main 367 340 O_________O___ jtwc_io IO031984 10.2000 84.2000 30 -1 10.2000 84.2000 1 30 7 281
1984314N09088 1984 110 NI BB NOT_NAMED 1984-11-10 15:00:00 NR 10.2532 83.8749 main 346 318 P_________P___ IO031984 10.2574 83.8999 32 -1 10.2490 83.8499 1 32 6 279
1984314N09088 1984 110 NI BB NOT_NAMED 1984-11-10 18:00:00 NR 10.2962 83.5499 main 309 283 O_________P___ jtwc_io IO031984 10.3000 83.6000 35 0 10.2923 83.4998 1 35 7 278
1984314N09088 1984 110 NI BB NOT_NAMED 1984-11-10 21:00:00 NR 10.3448 83.1787 main 283 251 P_________P___ IO031984 10.3500 83.2075 37 0 10.3396 83.1499 1 37 7 278
1984314N09088 1984 110 NI BB NOT_NAMED 1984-11-11 00:00:00 NR 10.4000 82.8000 main 251 223 O_________O___ jtwc_io IO031984 10.4000 82.8000 40 0 10.4000 82.8000 2 40 7 278
1984314N09088 1984 110 NI BB NOT_NAMED 1984-11-11 03:00:00 NR 10.4522 82.4320 main 220 195 P_________P___ IO031984 10.4349 82.4424 45 0 10.4694 82.4216 2 45 7 280
1984314N09088 1984 110 NI BB NOT_NAMED 1984-11-11 06:00:00 NR 10.5276 82.0737 main 195 175 O_________P___ jtwc_io IO031984 10.5000 82.1000 50 0 10.5551 82.0475 2 50 7 286
1984314N09088 1984 110 NI BB NOT_NAMED 1984-11-11 09:00:00 NR 10.6491 81.7136 main 175 163 P_________P___ IO031984 10.6350 81.7276 55 0 10.6632 81.6997 2 55 7 292
1984314N09088 1984 110 NI BB NOT_NAMED 1984-11-11 12:00:00 NR 10.8000 81.4000 main 163 142 O_________O___ jtwc_io IO031984 10.8000 81.4000 60 0 10.8000 81.4000 2 60 6 299
1984314N09088 1984 110 NI BB NOT_NAMED 1984-11-11 15:00:00 NR 10.9449 81.1601 main 142 120 P_________P___ IO031984 10.9349 81.1699 65 1 10.9548 81.1503 2 63 5 308
1984314N09088 1984 110 NI BB NOT_NAMED 1984-11-11 18:00:00 NR 11.1199 80.9763 main 120 98 O_________P___ jtwc_io IO031984 11.1000 81.0000 70 1 11.1398 80.9525 2 67 5 319
1984314N09088 1984 110 NI BB NOT_NAMED 1984-11-11 21:00:00 NR 11.3412 80.8118 main 98 93 P_________P___ IO031984 11.3275 80.8200 72 1 11.3549 80.8035 2 71 6 331
1984314N09088 1984 110 NI BB NOT_NAMED 1984-11-12 00:00:00 NR 11.6000 80.7000 main 97 83 O_________O___ jtwc_io IO031984 11.6000 80.7000 75 1 11.6000 80.7000 4 75 6 344
1984314N09088 1984 110 NI BB NOT_NAMED 1984-11-12 03:00:00 NR 11.8839 80.6523 main 83 54 P_________P___ IO031984 11.8925 80.6849 77 1 11.8752 80.6196 4 76 6 355
1984314N09088 1984 110 NI BB NOT_NAMED 1984-11-12 06:00:00 NR 12.1887 80.6412 main 54 43 O_________P___ jtwc_io IO031984 12.2000 80.7000 80 1 12.1774 80.5824 4 77 6 356
1984314N09088 1984 110 NI BB NOT_NAMED 1984-11-12 09:00:00 NR 12.4917 80.6108 main 43 43 P_________P___ IO031984 12.4925 80.6426 80 1 12.4909 80.5790 4 78 6 356
1984314N09088 1984 110 NI BB NOT_NAMED 1984-11-12 12:00:00 NR 12.8000 80.6000 main 43 39 O_________O___ jtwc_io IO031984 12.8000 80.6000 80 1 12.8000 80.6000 4 80 7 0
1984314N09088 1984 110 NI BB NOT_NAMED 1984-11-12 15:00:00 NR 13.1561 80.6377 main 34 34 P_________P___ IO031984 13.1650 80.6349 82 1 13.1472 80.6404 4 81 7 8
1984314N09088 1984 110 NI BB NOT_NAMED 1984-11-12 18:00:00 NR 13.4888 80.6999 main 43 43 O_________P___ jtwc_io IO031984 13.5000 80.7000 85 2 13.4775 80.6997 4 82 6 11
1984314N09088 1984 110 NI BB NOT_NAMED 1984-11-12 21:00:00 NR 13.7595 80.7546 main 54 54 P_________P___ IO031984 13.7750 80.7500 85 2 13.7441 80.7592 4 83 4 13
1984314N09088 1984 110 NI BB NOT_NAMED 1984-11-13 00:00:00 NR 13.9000 80.8000 main 55 54 O_________O___ jtwc_io IO031984 13.9000 80.8000 85 2 13.9000 80.8000 4 85 1 52
1984314N09088 1984 110 NI BB NOT_NAMED 1984-11-13 03:00:00 NR 13.8242 80.8407 main 54 54 P_________P___ IO031984 13.7950 80.8726 85 2 13.8534 80.8088 4 85 3 169
1984314N09088 1984 110 NI BB NOT_NAMED 1984-11-13 06:00:00 NR 13.6512 80.8475 main 54 54 O_________P___ jtwc_io IO031984 13.6000 80.9000 85 2 13.7025 80.7950 4 85 3 186
1984314N09088 1984 110 NI BB NOT_NAMED 1984-11-13 09:00:00 NR 13.4976 80.7943 main 54 43 P_________P___ IO031984 13.4700 80.8299 85 2 13.5253 80.7587 4 85 3 209
1984314N09088 1984 110 NI BB NOT_NAMED 1984-11-13 12:00:00 NR 13.4000 80.7000 main 43 32 O_________O___ jtwc_io IO031984 13.4000 80.7000 85 2 13.4000 80.7000 4 85 2 252
1984314N09088 1984 110 NI BB NOT_NAMED 1984-11-13 15:00:00 NR 13.4280 80.5760 main 32 21 P_________P___ IO031984 13.4125 80.5425 85 2 13.4435 80.6095 4 83 3 297
1984314N09088 1984 110 NI BB NOT_NAMED 1984-11-13 18:00:00 NR 13.5238 80.4501 main 21 10 O_________P___ jtwc_io IO031984 13.5000 80.4000 85 2 13.5476 80.5002 4 82 3 318
1984314N09088 1984 110 NI BB NOT_NAMED 1984-11-13 21:00:00 NR 13.6602 80.3591 main 10 0 P_________P___ IO031984 13.6425 80.3275 82 1 13.6779 80.3908 4 81 3 332
1984314N09088 1984 110 NI BB NOT_NAMED 1984-11-14 00:00:00 NR 13.8000 80.3000 main 0 0 O_________O___ jtwc_io IO031984 13.8000 80.3000 80 1 13.8000 80.3000 4 80 3 342
1984314N09088 1984 110 NI BB NOT_NAMED 1984-11-14 03:00:00 NR 13.8955 80.2767 main 10 10 P_________P___ IO031984 13.9225 80.3000 77 1 13.8684 80.2534 4 77 2 344
1984314N09088 1984 110 NI BB NOT_NAMED 1984-11-14 06:00:00 NR 13.9612 80.2637 main 15 10 O_________P___ jtwc_io IO031984 14.0000 80.3000 75 1 13.9225 80.2274 4 75 1 340
1984314N09088 1984 110 NI BB NOT_NAMED 1984-11-14 09:00:00 NR 13.9864 80.2314 main 10 10 P_________P___ IO031984 14.0075 80.2500 72 1 13.9653 80.2128 4 72 1 304
1984314N09088 1984 110 NI BB NOT_NAMED 1984-11-14 12:00:00 NR 14.0000 80.2000 main 10 10 O_________O___ jtwc_io IO031984 14.0000 80.2000 70 1 14.0000 80.2000 4 70 1 321
1984314N09088 1984 110 NI BB NOT_NAMED 1984-11-14 15:00:00 NR 14.0397 80.1908 main 10 10 P_________P___ IO031984 14.0500 80.2000 65 1 14.0294 80.1816 4 63 1 0
1984314N09088 1984 110 NI BB NOT_NAMED 1984-11-14 18:00:00 NR 14.0807 80.1818 main 10 0 O_________P___ jtwc_io IO031984 14.1000 80.2000 60 0 14.0550 80.1575 4 57 1 328
1984314N09088 1984 110 NI BB NOT_NAMED 1984-11-14 21:00:00 NR 14.0977 80.1432 main 0 0 P_________P___ IO031984 14.1075 80.1500 52 0 14.0781 80.1297 4 51 1 284
1984314N09088 1984 110 NI BB NOT_NAMED 1984-11-15 00:00:00 NR 14.1000 80.1000 main 0 0 O_________O___ jtwc_io IO031984 14.1000 80.1000 45 0 14.1000 80.1000 2 45 1 270
1984314N09088 1984 110 NI BB NOT_NAMED 1984-11-15 03:00:00 NR 14.0975 80.0875 main 0 0 P_____________ IO031984 14.0975 80.0875 40 0 2 0 0
1984314N09088 1984 110 NI BB NOT_NAMED 1984-11-15 06:00:00 NR 14.1000 80.1000 main 0 O_____________ jtwc_io IO031984 14.1000 80.1000 35 0 2 0 0

IBTrACS Databaseについて

本データベースは、米国NOAAが公開する1842年以降の世界の熱帯低気圧のベストトラックデータアーカイブInternational Best Track Archive for Climate Stewardship (IBTrACS)を、ウェブで閲覧しやすい形式に変換したものです。

最終更新日:2021-12-03